createdAt,value
2022-08-06T00:02:25.972Z,73.18
2022-08-06T00:05:01.656Z,73.08
2022-08-06T00:07:45.048Z,73.10
2022-08-06T00:10:19.106Z,73.33
2022-08-06T00:12:47.992Z,73.21
2022-08-06T00:15:19.838Z,73.39
2022-08-06T00:18:06.351Z,72.85
2022-08-06T00:20:33.573Z,73.16
2022-08-06T00:23:16.679Z,73.22
2022-08-06T00:25:51.647Z,73.14
2022-08-06T00:28:31.866Z,73.44
2022-08-06T00:31:09.884Z,73.43
2022-08-06T00:33:49.982Z,73.87
2022-08-06T00:36:24.933Z,74.07
2022-08-06T00:38:55.999Z,74.38
2022-08-06T00:41:27.045Z,74.05
2022-08-06T00:44:00.024Z,74.06
2022-08-06T00:46:29.781Z,74.51
2022-08-06T00:48:57.392Z,74.14
2022-08-06T00:51:25.344Z,74.25
2022-08-06T00:54:10.707Z,74.60
2022-08-06T00:56:37.669Z,74.96
2022-08-06T00:59:10.750Z,74.56
2022-08-06T01:01:50.147Z,75.19
2022-08-06T01:04:19.200Z,75.03
2022-08-06T01:06:54.863Z,75.06
2022-08-06T01:09:25.685Z,74.91
2022-08-06T01:11:52.620Z,75.06
2022-08-06T01:14:38.216Z,74.69
2022-08-06T01:17:34.110Z,75.00
2022-08-06T01:21:58.068Z,75.08
2022-08-06T01:23:39.859Z,74.93
2022-08-06T01:27:14.962Z,75.26
2022-08-06T01:29:52.168Z,74.92
2022-08-06T01:32:28.709Z,75.61
2022-08-06T01:35:05.379Z,74.99
2022-08-06T01:38:11.493Z,75.26
2022-08-06T01:40:41.113Z,74.87
2022-08-06T01:43:23.049Z,75.45
2022-08-06T01:46:02.327Z,75.71
2022-08-06T01:48:31.915Z,76.05
2022-08-06T01:51:02.759Z,76.29
2022-08-06T01:53:47.511Z,76.42
2022-08-06T01:56:55.943Z,76.34
2022-08-06T01:59:23.105Z,75.84
2022-08-06T02:01:55.473Z,76.06
2022-08-06T02:04:29.039Z,76.03
2022-08-06T02:06:58.328Z,76.36
2022-08-06T02:09:33.782Z,76.45
2022-08-06T02:12:17.580Z,76.55
2022-08-06T02:15:22.092Z,76.36
2022-08-06T02:18:06.456Z,76.63
2022-08-06T02:20:48.249Z,76.43
2022-08-06T02:23:25.304Z,76.61
2022-08-06T02:26:01.756Z,76.90
2022-08-06T02:28:31.068Z,76.42
2022-08-06T02:30:59.717Z,76.94
2022-08-06T02:34:01.403Z,76.71
2022-08-06T02:36:30.033Z,76.82
2022-08-06T02:39:09.082Z,76.47
2022-08-06T02:42:05.179Z,77.36
2022-08-06T02:44:45.993Z,77.19
2022-08-06T02:47:55.432Z,77.41
2022-08-06T02:50:36.731Z,77.17
2022-08-06T02:53:24.751Z,77.68
2022-08-06T02:55:58.023Z,77.54
2022-08-06T02:58:57.935Z,77.83
2022-08-06T03:01:42.957Z,77.40
2022-08-06T03:04:12.042Z,76.83
2022-08-06T03:06:42.830Z,77.53
2022-08-06T03:09:15.128Z,77.51
2022-08-06T03:11:47.484Z,77.52
2022-08-06T03:15:04.021Z,77.64
2022-08-06T03:17:06.441Z,77.89
2022-08-06T03:19:56.454Z,78.01
2022-08-06T03:22:35.792Z,77.03
2022-08-06T03:25:14.139Z,77.70
2022-08-06T03:27:45.064Z,77.94
2022-08-06T03:30:30.434Z,78.23
2022-08-06T03:33:07.686Z,78.12
2022-08-06T03:35:54.322Z,78.21
2022-08-06T03:38:28.158Z,78.14
2022-08-06T03:40:58.533Z,78.09
2022-08-06T03:43:28.613Z,78.04
2022-08-06T03:46:18.680Z,78.17
2022-08-06T03:48:46.627Z,77.67
2022-08-06T03:51:50.519Z,78.07
2022-08-06T03:54:09.704Z,78.51
2022-08-06T03:56:46.538Z,78.33
2022-08-06T03:59:20.314Z,78.33
2022-08-06T04:01:50.790Z,78.50
2022-08-06T04:04:26.834Z,78.08
2022-08-06T04:06:57.310Z,77.80
2022-08-06T04:09:33.112Z,78.73
2022-08-06T04:12:36.574Z,77.85
2022-08-06T04:14:56.044Z,78.83
2022-08-06T04:17:24.735Z,79.08
2022-08-06T04:19:52.915Z,78.95
2022-08-06T04:23:08.894Z,78.19
2022-08-06T04:25:13.003Z,78.46
2022-08-06T04:27:53.899Z,78.97
2022-08-06T04:30:27.415Z,78.63
2022-08-06T04:33:00.675Z,78.59
2022-08-06T04:36:07.527Z,78.66
2022-08-06T04:38:26.805Z,79.05
2022-08-06T04:40:57.895Z,79.05
2022-08-06T04:43:38.757Z,79.33
2022-08-06T04:46:18.437Z,78.93
2022-08-06T04:48:50.852Z,78.82
2022-08-06T04:52:34.154Z,78.75
2022-08-06T04:54:13.090Z,78.96
2022-08-06T04:56:48.354Z,79.76
2022-08-06T04:59:18.141Z,79.69
2022-08-06T05:01:56.686Z,80.02
2022-08-06T05:04:28.073Z,79.83
2022-08-06T05:07:29.059Z,80.09
2022-08-06T05:10:07.495Z,80.15
2022-08-06T05:12:45.011Z,79.52
2022-08-06T05:15:21.974Z,78.91
2022-08-06T05:18:15.057Z,79.65
2022-08-06T05:20:59.575Z,79.16
2022-08-06T05:23:46.587Z,79.17
2022-08-06T05:26:25.166Z,78.89
2022-08-06T05:28:54.435Z,79.76
2022-08-06T05:31:40.931Z,79.11
2022-08-06T05:34:13.879Z,78.66
2022-08-06T05:36:43.788Z,79.46
2022-08-06T05:39:56.496Z,79.57
2022-08-06T05:41:59.879Z,77.62
2022-08-06T05:44:29.756Z,78.87
2022-08-06T05:47:11.621Z,78.28
2022-08-06T05:49:56.314Z,78.04
2022-08-06T05:52:48.365Z,78.89
2022-08-06T05:55:40.699Z,76.18
2022-08-06T05:58:15.377Z,75.02
2022-08-06T06:00:44.801Z,70.81
2022-08-06T06:03:24.864Z,75.22
2022-08-06T06:06:04.143Z,72.74
2022-08-06T06:08:39.950Z,69.68
2022-08-06T06:11:55.664Z,74.26
2022-08-06T06:14:45.816Z,71.83
2022-08-06T06:18:00.077Z,75.29
2022-08-06T06:21:18.038Z,72.68
2022-08-06T06:23:56.059Z,71.32
2022-08-06T06:27:42.337Z,74.79
2022-08-06T06:30:39.296Z,74.98
2022-08-06T06:33:36.895Z,75.88
2022-08-06T06:36:20.017Z,74.32
2022-08-06T06:39:11.741Z,72.81
2022-08-06T06:41:49.006Z,68.74
2022-08-06T06:45:03.470Z,65.23
2022-08-06T06:47:59.851Z,64.79
2022-08-06T06:50:52.521Z,63.20
2022-08-06T06:53:21.041Z,63.58
2022-08-06T06:55:58.895Z,61.32
2022-08-06T06:58:47.192Z,60.68
2022-08-06T07:01:27.923Z,58.80
2022-08-06T07:04:01.582Z,56.98
2022-08-06T07:06:44.152Z,57.61
2022-08-06T07:09:41.722Z,54.62
2022-08-06T07:12:14.464Z,53.39
2022-08-06T07:14:58.274Z,53.55
2022-08-06T07:17:44.705Z,50.77
2022-08-06T07:20:28.871Z,53.06
2022-08-06T07:24:07.598Z,51.30
2022-08-06T07:25:53.913Z,51.53
2022-08-06T07:28:28.974Z,52.00
2022-08-06T07:31:04.719Z,51.19
2022-08-06T07:33:59.842Z,50.73
2022-08-06T07:36:37.554Z,48.78
2022-08-06T07:39:14.629Z,48.21
2022-08-06T07:42:06.772Z,46.52
2022-08-06T07:44:54.955Z,49.25
2022-08-06T07:47:46.308Z,48.01
2022-08-06T07:50:18.142Z,45.78
2022-08-06T07:52:54.499Z,47.77
2022-08-06T07:55:26.269Z,46.78
2022-08-06T07:58:00.327Z,48.65
2022-08-06T08:00:29.071Z,48.00
2022-08-06T08:03:43.255Z,48.75
2022-08-06T08:06:21.582Z,47.58
2022-08-06T08:08:56.819Z,47.02
2022-08-06T08:11:38.194Z,44.10
2022-08-06T08:14:18.960Z,45.52
2022-08-06T08:16:46.817Z,44.98
2022-08-06T08:19:35.260Z,46.93
2022-08-06T08:22:13.882Z,46.03
2022-08-06T08:24:54.340Z,43.86
2022-08-06T08:27:23.744Z,43.48
2022-08-06T08:29:56.796Z,42.69
2022-08-06T08:32:25.313Z,43.12
2022-08-06T08:34:54.416Z,43.58
2022-08-06T08:37:23.566Z,42.51
2022-08-06T08:39:50.653Z,39.74
2022-08-06T08:42:38.170Z,39.77
2022-08-06T08:45:08.884Z,38.75
2022-08-06T08:47:52.983Z,40.55
2022-08-06T08:50:29.106Z,41.35
2022-08-06T08:53:11.508Z,40.81
2022-08-06T08:57:11.238Z,38.99
2022-08-06T08:58:40.302Z,39.27
2022-08-06T09:01:51.697Z,37.27
2022-08-06T09:03:59.374Z,35.07
2022-08-06T09:06:30.776Z,37.75
2022-08-06T09:09:05.305Z,37.10
2022-08-06T09:12:05.780Z,34.38
2022-08-06T09:14:22.927Z,36.42
2022-08-06T09:17:02.267Z,34.43
2022-08-06T09:19:37.677Z,34.57
2022-08-06T09:22:08.979Z,35.41
2022-08-06T09:24:39.303Z,36.41
2022-08-06T09:27:45.323Z,34.04
2022-08-06T09:30:25.693Z,34.28
2022-08-06T09:33:03.704Z,37.01
2022-08-06T09:35:44.616Z,34.59
2022-08-06T09:38:16.178Z,32.78
2022-08-06T09:41:06.772Z,32.50
2022-08-06T09:44:03.976Z,33.43
2022-08-06T09:47:01.998Z,33.63
2022-08-06T09:49:48.998Z,34.85
2022-08-06T09:52:25.656Z,34.54
2022-08-06T09:54:55.021Z,34.27
2022-08-06T09:57:34.717Z,32.79
2022-08-06T10:00:14.255Z,33.51
2022-08-06T10:02:50.634Z,36.76
2022-08-06T10:05:20.549Z,33.27
2022-08-06T10:08:02.094Z,35.83
2022-08-06T10:10:49.797Z,33.61
2022-08-06T10:13:31.039Z,33.34
2022-08-06T10:16:20.554Z,33.11
2022-08-06T10:18:55.526Z,33.82
2022-08-06T10:21:42.420Z,30.46
2022-08-06T10:24:26.114Z,32.14
2022-08-06T10:27:14.335Z,30.99
2022-08-06T10:29:48.297Z,31.69
2022-08-06T10:32:30.637Z,30.90
2022-08-06T10:35:04.685Z,30.32
2022-08-06T10:37:49.011Z,30.62
2022-08-06T10:40:30.843Z,31.27
2022-08-06T10:43:02.074Z,28.69
2022-08-06T10:45:48.818Z,30.90
2022-08-06T10:49:00.773Z,30.43
2022-08-06T10:51:07.956Z,29.10
2022-08-06T10:54:00.891Z,29.19
2022-08-06T10:56:28.076Z,30.00
2022-08-06T10:58:59.818Z,32.21
2022-08-06T11:01:47.120Z,30.75
2022-08-06T11:05:08.114Z,32.83
2022-08-06T11:08:42.947Z,29.58
2022-08-06T11:11:39.752Z,31.08
2022-08-06T11:14:18.990Z,29.91
2022-08-06T11:16:58.525Z,30.18
2022-08-06T11:19:56.707Z,32.27
2022-08-06T11:22:54.093Z,30.96
2022-08-06T11:25:44.857Z,30.04
2022-08-06T11:28:17.233Z,31.55
2022-08-06T11:30:51.401Z,29.65
2022-08-06T11:33:33.836Z,31.70
2022-08-06T11:36:09.478Z,31.82
2022-08-06T11:38:50.625Z,27.99
2022-08-06T11:41:54.548Z,28.16
2022-08-06T11:44:17.175Z,29.79
2022-08-06T11:46:48.217Z,29.16
2022-08-06T11:49:42.919Z,29.60
2022-08-06T11:52:34.308Z,31.08
2022-08-06T11:55:12.969Z,31.91
2022-08-06T11:58:13.568Z,34.04
2022-08-06T12:00:58.302Z,32.28
2022-08-06T12:03:44.540Z,33.73
2022-08-06T12:06:25.955Z,32.67
2022-08-06T12:09:21.283Z,31.33
2022-08-06T12:11:51.532Z,32.33
2022-08-06T12:14:55.250Z,31.58
2022-08-06T12:17:44.528Z,32.65
2022-08-06T12:20:13.311Z,33.22
2022-08-06T12:23:21.044Z,34.38
2022-08-06T12:25:49.918Z,35.48
2022-08-06T12:28:20.304Z,38.63
2022-08-06T12:30:50.704Z,38.21
2022-08-06T12:33:20.895Z,37.70
2022-08-06T12:36:03.474Z,36.30
2022-08-06T12:38:32.920Z,33.69
2022-08-06T12:41:09.196Z,36.82
2022-08-06T12:43:45.985Z,34.31
2022-08-06T12:46:19.876Z,36.92
2022-08-06T12:48:51.856Z,36.39
2022-08-06T12:51:27.543Z,37.66
2022-08-06T12:54:02.318Z,34.93
2022-08-06T12:56:32.985Z,36.39
2022-08-06T12:59:16.212Z,36.91
2022-08-06T13:02:10.655Z,38.87
2022-08-06T13:04:44.654Z,36.90
2022-08-06T13:07:14.981Z,37.51
2022-08-06T13:10:17.186Z,37.56
2022-08-06T13:14:03.433Z,39.92
2022-08-06T13:15:23.230Z,36.36
2022-08-06T13:18:40.563Z,35.44
2022-08-06T13:21:04.729Z,35.82
2022-08-06T13:23:39.045Z,35.17
2022-08-06T13:26:26.317Z,35.23
2022-08-06T13:30:34.536Z,35.26
2022-08-06T13:32:19.179Z,35.21
2022-08-06T13:34:57.685Z,35.10
2022-08-06T13:38:16.161Z,35.60
2022-08-06T13:40:56.974Z,34.98
2022-08-06T13:43:53.401Z,35.01
2022-08-06T13:46:27.757Z,35.54
2022-08-06T13:49:01.834Z,36.85
2022-08-06T13:51:35.561Z,36.34
2022-08-06T13:54:16.386Z,36.76
2022-08-06T13:56:52.635Z,36.13
2022-08-06T13:59:40.189Z,35.10
2022-08-06T14:02:09.042Z,36.41
2022-08-06T14:04:36.262Z,35.30
2022-08-06T14:07:03.219Z,34.77
2022-08-06T14:09:41.278Z,33.91
2022-08-06T14:12:18.540Z,36.42
2022-08-06T14:14:47.930Z,35.45
2022-08-06T14:17:15.386Z,34.73
2022-08-06T14:20:15.093Z,37.00
2022-08-06T14:22:37.192Z,36.62
2022-08-06T14:25:07.877Z,36.00
2022-08-06T14:27:43.715Z,37.98
2022-08-06T14:30:26.106Z,38.47
2022-08-06T14:33:09.918Z,35.26
2022-08-06T14:35:50.245Z,36.59
2022-08-06T14:38:20.356Z,38.29
2022-08-06T14:41:09.676Z,36.83
2022-08-06T14:43:57.764Z,37.28
2022-08-06T14:46:31.210Z,36.43
2022-08-06T14:49:05.358Z,39.10
2022-08-06T14:51:37.833Z,37.57
2022-08-06T14:54:31.276Z,36.38
2022-08-06T14:57:14.795Z,37.67
2022-08-06T14:59:49.139Z,36.95
2022-08-06T15:02:26.694Z,35.15
2022-08-06T15:04:55.130Z,35.04
2022-08-06T15:07:26.917Z,36.48
2022-08-06T15:10:05.291Z,37.35
2022-08-06T15:12:55.687Z,36.03
2022-08-06T15:15:36.457Z,37.04
2022-08-06T15:18:25.315Z,37.18
2022-08-06T15:21:00.969Z,36.85
2022-08-06T15:23:31.043Z,36.06
2022-08-06T15:26:41.921Z,36.22
2022-08-06T15:29:10.772Z,38.28
2022-08-06T15:31:42.590Z,37.13
2022-08-06T15:34:12.645Z,38.01
2022-08-06T15:36:59.140Z,39.55
2022-08-06T15:39:51.452Z,37.77
2022-08-06T15:42:18.890Z,39.87
2022-08-06T15:44:46.766Z,39.50
2022-08-06T15:47:14.749Z,39.00
2022-08-06T15:50:00.556Z,39.19
2022-08-06T15:52:31.178Z,40.48
2022-08-06T15:55:01.113Z,40.96
2022-08-06T15:58:07.110Z,41.17
2022-08-06T16:00:18.416Z,41.88
2022-08-06T16:02:50.203Z,41.84
2022-08-06T16:05:32.988Z,42.56
2022-08-06T16:08:22.980Z,43.16
2022-08-06T16:11:00.249Z,42.10
2022-08-06T16:13:27.180Z,42.41
2022-08-06T16:15:54.213Z,43.18
2022-08-06T16:18:30.267Z,42.55
2022-08-06T16:20:58.045Z,42.29
2022-08-06T16:23:56.400Z,44.08
2022-08-06T16:26:29.825Z,42.70
2022-08-06T16:29:07.522Z,44.95
2022-08-06T16:31:37.662Z,43.83
2022-08-06T16:34:15.413Z,44.18
2022-08-06T16:36:44.504Z,43.27
2022-08-06T16:39:16.165Z,43.36
2022-08-06T16:42:09.243Z,43.43
2022-08-06T16:45:00.404Z,44.15
2022-08-06T16:47:27.077Z,45.03
2022-08-06T16:50:18.772Z,46.08
2022-08-06T16:54:07.929Z,45.07
2022-08-06T16:55:42.287Z,46.44
2022-08-06T16:58:16.777Z,44.75
2022-08-06T17:01:00.176Z,44.91
2022-08-06T17:03:45.998Z,44.64
2022-08-06T17:06:17.596Z,45.29
2022-08-06T17:08:53.819Z,45.55
2022-08-06T17:11:45.411Z,47.77
2022-08-06T17:14:13.319Z,47.67
2022-08-06T17:16:42.309Z,46.14
2022-08-06T17:19:17.351Z,46.78
2022-08-06T17:21:58.472Z,46.52
2022-08-06T17:27:43.160Z,45.95
2022-08-06T17:30:14.612Z,46.29
2022-08-06T17:36:32.207Z,46.62
2022-08-06T17:38:17.899Z,46.69
2022-08-06T17:40:49.176Z,46.51
2022-08-06T17:43:22.860Z,47.38
2022-08-06T17:46:26.072Z,46.76
2022-08-06T17:48:53.992Z,47.34
2022-08-06T17:51:22.499Z,48.80
2022-08-06T17:53:53.734Z,47.99
2022-08-06T17:56:30.745Z,48.13
2022-08-06T17:59:16.683Z,49.40
2022-08-06T18:01:49.127Z,49.53
2022-08-06T18:04:21.867Z,49.86
2022-08-06T18:06:55.906Z,49.49
2022-08-06T18:10:09.888Z,49.39
2022-08-06T18:12:12.330Z,51.17
2022-08-06T18:14:39.406Z,50.73
2022-08-06T18:17:16.071Z,51.89
2022-08-06T18:19:44.465Z,50.69
2022-08-06T18:22:20.991Z,51.55
2022-08-06T18:24:54.496Z,51.57
2022-08-06T18:27:54.177Z,51.03
2022-08-06T18:30:29.974Z,51.85
2022-08-06T18:33:09.821Z,52.17
2022-08-06T18:35:55.491Z,51.70
2022-08-06T18:38:31.006Z,51.68
2022-08-06T18:41:14.364Z,51.73
2022-08-06T18:43:48.876Z,51.07
2022-08-06T18:47:02.261Z,51.86
2022-08-06T18:49:20.437Z,53.41
2022-08-06T18:51:55.943Z,53.88
2022-08-06T18:54:24.703Z,53.40
2022-08-06T18:56:55.488Z,53.47
2022-08-06T18:59:28.530Z,54.26
2022-08-06T19:02:00.792Z,54.84
2022-08-06T19:04:30.054Z,54.38
2022-08-06T19:07:02.641Z,54.49
2022-08-06T19:09:34.673Z,54.63
2022-08-06T19:12:13.107Z,54.62
2022-08-06T19:14:48.328Z,55.05
2022-08-06T19:17:22.566Z,55.16
2022-08-06T19:20:20.655Z,55.25
2022-08-06T19:22:52.897Z,56.42
2022-08-06T19:25:22.332Z,57.02
2022-08-06T19:28:31.436Z,55.91
2022-08-06T19:30:45.678Z,56.29
2022-08-06T19:33:16.433Z,56.56
2022-08-06T19:36:11.817Z,56.97
2022-08-06T19:38:34.523Z,56.96
2022-08-06T19:41:02.642Z,56.54
2022-08-06T19:44:25.417Z,57.10
2022-08-06T19:46:30.575Z,58.18
2022-08-06T19:49:04.422Z,57.90
2022-08-06T19:52:02.169Z,57.78
2022-08-06T19:54:26.319Z,58.58
2022-08-06T19:57:08.465Z,58.61
2022-08-06T20:00:52.273Z,59.22
2022-08-06T20:02:26.464Z,59.01
2022-08-06T20:04:56.226Z,59.28
2022-08-06T20:07:27.850Z,58.54
2022-08-06T20:09:59.594Z,60.02
2022-08-06T20:12:32.020Z,60.35
2022-08-06T20:14:59.595Z,61.12
2022-08-06T20:17:45.692Z,60.39
2022-08-06T20:20:16.380Z,60.63
2022-08-06T20:22:44.576Z,61.13
2022-08-06T20:25:19.656Z,61.06
2022-08-06T20:29:07.843Z,61.24
2022-08-06T20:30:49.485Z,61.86
2022-08-06T20:33:24.175Z,61.55
2022-08-06T20:35:58.302Z,62.03
2022-08-06T20:38:40.073Z,62.15
2022-08-06T20:41:56.669Z,62.80
2022-08-06T20:44:08.559Z,62.87
2022-08-06T20:49:48.253Z,62.53
2022-08-06T20:52:17.844Z,63.25
2022-08-06T20:54:52.723Z,63.24
2022-08-06T20:57:27.234Z,63.72
2022-08-06T20:59:59.555Z,63.51
2022-08-06T21:02:32.087Z,63.86
2022-08-06T21:05:18.153Z,63.98
2022-08-06T21:07:56.819Z,64.11
2022-08-06T21:10:30.214Z,64.13
2022-08-06T21:13:02.180Z,64.42
2022-08-06T21:15:54.085Z,64.39
2022-08-06T21:18:21.759Z,66.32
2022-08-06T21:20:52.198Z,67.08
2022-08-06T21:23:26.281Z,66.95
2022-08-06T21:26:15.174Z,66.11
2022-08-06T21:28:52.169Z,66.84
2022-08-06T21:31:24.056Z,66.97
2022-08-06T21:33:54.534Z,67.40
2022-08-06T21:36:26.075Z,67.74
2022-08-06T21:38:59.040Z,67.87
2022-08-06T21:41:49.807Z,67.65
2022-08-06T21:44:17.616Z,68.39
2022-08-06T21:46:57.810Z,68.43
2022-08-06T21:50:03.932Z,68.74
2022-08-06T21:52:15.992Z,69.03
2022-08-06T21:54:53.051Z,70.00
2022-08-06T21:57:24.820Z,70.02
2022-08-06T21:59:53.204Z,69.79
2022-08-06T22:02:26.233Z,70.07
2022-08-06T22:04:59.035Z,69.73
2022-08-06T22:08:06.535Z,70.39
2022-08-06T22:10:19.275Z,69.40
2022-08-06T22:13:13.301Z,69.84
2022-08-06T22:15:47.080Z,69.48
2022-08-06T22:18:18.840Z,70.22
2022-08-06T22:20:55.413Z,69.33
2022-08-06T22:23:24.543Z,69.68
2022-08-06T22:25:51.888Z,69.28
2022-08-06T22:28:23.640Z,70.45
2022-08-06T22:31:04.450Z,70.88
2022-08-06T22:33:45.428Z,70.63
2022-08-06T22:36:34.070Z,70.95
2022-08-06T22:39:04.467Z,71.46
2022-08-06T22:41:42.877Z,71.53
2022-08-06T22:44:31.038Z,71.80
2022-08-06T22:47:05.388Z,71.19
2022-08-06T22:49:36.609Z,71.76
2022-08-06T22:52:04.766Z,72.28
2022-08-06T22:54:57.698Z,71.82
2022-08-06T22:57:24.399Z,71.93
2022-08-06T23:00:11.966Z,72.06
2022-08-06T23:02:38.696Z,72.39
2022-08-06T23:05:13.841Z,72.44
2022-08-06T23:07:53.622Z,71.92
2022-08-06T23:10:22.299Z,73.21
2022-08-06T23:12:49.383Z,73.03
2022-08-06T23:15:30.513Z,72.79
2022-08-06T23:18:08.251Z,72.90
2022-08-06T23:20:37.072Z,73.47
2022-08-06T23:23:09.542Z,73.74
2022-08-06T23:26:02.127Z,74.31
2022-08-06T23:28:29.316Z,73.82
2022-08-06T23:30:56.944Z,74.07
2022-08-06T23:33:23.866Z,74.30
2022-08-06T23:35:51.207Z,74.83
2022-08-06T23:38:31.733Z,74.20
2022-08-06T23:41:02.361Z,74.63
2022-08-06T23:43:42.904Z,75.26
2022-08-06T23:46:09.896Z,74.50
2022-08-06T23:48:36.998Z,74.19
2022-08-06T23:51:07.154Z,74.21
2022-08-06T23:54:07.914Z,75.20
2022-08-06T23:56:26.588Z,75.25
2022-08-06T23:58:56.890Z,74.90
